首页
METAR-TAF:

METAR-TAF

机场 :

Whitecourt, 艾伯塔, 加拿大

纬度: 54-09N, 经度: 115-47W, 海拔: 783米

当前天气观测

该预报发布于2小时和10分钟前的04:00 UTC
风速12节,风向东转东南,有时为18节阵风
温度 11°C
湿度 50%
气压 1003 hPa
能見度: 24.1公里
少量云层高于8500英尺
散云层高于22000英尺

METAR: CYZU 250400Z 12012G18KT 15SM FEW085 SCT220 11/01 A2963 RMK AC2CI2 LAST STFD OBS/NXT 251200Z SLP049 DENSITY ALT 3100FT

时间: 00:10 (06:10 UTC)

预报

该预报发布于7小时和49分钟前的22:21 UTC
预报有效从24日的 22点(UTC)到 24日的 23点(UTC)
风速10节,风向东转东南,有时为20节阵风
能見度: 10公里
散云层高于5000英尺
短暂存在
从 24日的 22点(UTC)到 24日的 23点(UTC)
能見度: 10公里
多云层高于5000英尺
小阵雨

TAF: CYZU 242221Z 2422/2423 12010G20KT P6SM SCT050 TEMPO 2422/2423 P6SM -SHRA BKN050 RMK NXT FCST BY 251400Z

超过4000个机场的气象观测和天气预报(METAR&TAF报告)。

可查询的气象台以黄色和红色小点在地图上表示。

将鼠标移到小点上方,可查看气象台名称。

然后点击查看天气观测和预报。

如需切换地图:点击带黑十字的绿色按钮放大地图;点击带横线的绿色按钮缩小地图;或者点击绿色箭头查看邻近地区的地图。


METAR-TAF: